createdAt,value
2024-01-24T00:00:15.141Z,100922.19
2024-01-24T00:03:02.144Z,100925.05
2024-01-24T00:05:28.934Z,100920.86
2024-01-24T00:07:55.643Z,100908.30
2024-01-24T00:10:23.755Z,100898.70
2024-01-24T00:12:50.424Z,100895.21
2024-01-24T00:15:17.143Z,100896.38
2024-01-24T00:17:43.760Z,100903.54
2024-01-24T00:20:13.079Z,100898.77
2024-01-24T00:22:39.605Z,100875.82
2024-01-24T00:25:06.727Z,100877.70
2024-01-24T00:27:33.363Z,100870.48
2024-01-24T00:29:59.934Z,100859.86
2024-01-24T00:32:26.660Z,100856.11
2024-01-24T00:34:53.297Z,100851.09
2024-01-24T00:37:20.116Z,100846.27
2024-01-24T00:39:48.115Z,100848.59
2024-01-24T00:42:14.815Z,100834.13
2024-01-24T00:44:43.074Z,100819.27
2024-01-24T00:47:09.674Z,100804.67
2024-01-24T00:49:36.236Z,100799.27
2024-01-24T00:52:04.402Z,100781.70
2024-01-24T00:54:31.055Z,100786.81
2024-01-24T00:56:57.608Z,100773.72
2024-01-24T00:59:24.117Z,100760.47
2024-01-24T01:01:50.669Z,100753.54
2024-01-24T01:04:17.256Z,100742.75
2024-01-24T01:06:44.025Z,100735.08
2024-01-24T01:09:11.420Z,100738.11
2024-01-24T01:11:39.151Z,100731.77
2024-01-24T01:14:05.986Z,100721.15
2024-01-24T01:16:32.708Z,100717.64
2024-01-24T01:18:59.470Z,100713.21
2024-01-24T01:21:26.065Z,100702.10
2024-01-24T01:23:52.585Z,100691.62
2024-01-24T01:26:19.623Z,100673.63
2024-01-24T01:28:46.305Z,100662.61
2024-01-24T01:31:12.827Z,100660.38
2024-01-24T01:33:39.496Z,100646.77
2024-01-24T01:36:14.306Z,100641.34
2024-01-24T01:38:49.427Z,100623.75
2024-01-24T01:41:17.544Z,100609.88
2024-01-24T01:43:44.690Z,100600.06
2024-01-24T01:46:16.494Z,100593.05
2024-01-24T01:48:43.484Z,100588.35
2024-01-24T01:51:10.794Z,100587.36
2024-01-24T01:53:39.229Z,100577.83
2024-01-24T01:56:09.727Z,100565.67
2024-01-24T01:58:37.966Z,100553.80
2024-01-24T02:01:08.179Z,100560.58
2024-01-24T02:03:35.283Z,100546.54
2024-01-24T02:06:02.448Z,100534.80
2024-01-24T02:08:32.239Z,100520.77
2024-01-24T02:10:58.798Z,100513.99
2024-01-24T02:13:32.128Z,100508.84
2024-01-24T02:16:04.185Z,100503.34
2024-01-24T02:18:31.467Z,100499.92
2024-01-24T02:20:58.553Z,100496.70
2024-01-24T02:23:27.071Z,100490.29
2024-01-24T02:25:54.191Z,100473.05
2024-01-24T02:28:20.819Z,100442.19
2024-01-24T02:30:47.339Z,100448.10
2024-01-24T02:33:14.401Z,100433.23
2024-01-24T02:35:41.011Z,100422.39
2024-01-24T02:38:07.649Z,100410.17
2024-01-24T02:40:34.331Z,100397.38
2024-01-24T02:43:00.994Z,100400.29
2024-01-24T02:45:27.712Z,100388.18
2024-01-24T02:47:54.395Z,100376.95
2024-01-24T02:50:21.143Z,100360.12
2024-01-24T02:52:48.069Z,100348.42
2024-01-24T02:55:15.974Z,100343.68
2024-01-24T02:57:45.857Z,100345.39
2024-01-24T03:00:16.320Z,100341.20
2024-01-24T03:02:42.994Z,100330.63
2024-01-24T03:05:09.611Z,100325.48
2024-01-24T03:07:37.300Z,100321.95
2024-01-24T03:10:04.693Z,100317.79
2024-01-24T03:12:31.358Z,100310.66
2024-01-24T03:14:58.133Z,100297.29
2024-01-24T03:17:24.721Z,100288.08
2024-01-24T03:19:51.714Z,100289.98
2024-01-24T03:22:19.024Z,100287.50
2024-01-24T03:24:45.750Z,100283.00
2024-01-24T03:27:12.433Z,100277.33
2024-01-24T03:29:41.523Z,100276.73
2024-01-24T03:32:08.014Z,100271.79
2024-01-24T03:34:35.136Z,100269.99
2024-01-24T03:37:01.774Z,100270.70
2024-01-24T03:39:28.829Z,100270.37
2024-01-24T03:41:55.411Z,100258.98
2024-01-24T03:44:22.079Z,100259.56
2024-01-24T03:46:48.635Z,100251.53
2024-01-24T03:49:15.972Z,100235.83
2024-01-24T03:51:43.633Z,100227.54
2024-01-24T03:54:10.180Z,100230.50
2024-01-24T03:56:36.839Z,100222.37
2024-01-24T03:59:03.391Z,100208.27
2024-01-24T04:01:30.194Z,100194.75
2024-01-24T04:03:56.891Z,100204.70
2024-01-24T04:06:23.656Z,100208.98
2024-01-24T04:08:50.322Z,100192.12
2024-01-24T04:11:16.871Z,100180.83
2024-01-24T04:13:43.638Z,100173.23
2024-01-24T04:16:10.479Z,100169.11
2024-01-24T04:18:38.005Z,100167.12
2024-01-24T04:21:04.940Z,100156.98
2024-01-24T04:23:31.666Z,100157.67
2024-01-24T04:25:58.143Z,100145.67
2024-01-24T04:28:24.914Z,100133.81
2024-01-24T04:30:51.524Z,100129.06
2024-01-24T04:33:18.351Z,100110.44
2024-01-24T04:35:45.042Z,100105.07
2024-01-24T04:38:11.640Z,100099.47
2024-01-24T04:40:38.232Z,100104.71
2024-01-24T04:43:04.875Z,100103.38
2024-01-24T04:45:31.470Z,100095.30
2024-01-24T04:47:58.448Z,100083.13
2024-01-24T04:50:25.265Z,100078.98
2024-01-24T04:52:51.948Z,100074.30
2024-01-24T04:55:18.877Z,100067.85
2024-01-24T04:57:45.501Z,100069.05
2024-01-24T05:00:12.658Z,100070.28
2024-01-24T05:02:39.927Z,100051.89
2024-01-24T05:05:07.478Z,100055.98
2024-01-24T05:07:35.010Z,100063.98
2024-01-24T05:10:04.053Z,100065.99
2024-01-24T05:12:31.554Z,100050.08
2024-01-24T05:14:58.209Z,100054.73
2024-01-24T05:17:25.003Z,100051.77
2024-01-24T05:19:51.766Z,100036.86
2024-01-24T05:22:18.776Z,100020.23
2024-01-24T05:24:46.420Z,99997.14
2024-01-24T05:27:14.042Z,100002.75
2024-01-24T05:29:41.597Z,100005.24
2024-01-24T05:32:08.093Z,100005.30
2024-01-24T05:34:34.869Z,99999.50
2024-01-24T05:37:01.528Z,100001.27
2024-01-24T05:39:28.161Z,99994.14
2024-01-24T05:41:54.676Z,99986.61
2024-01-24T05:44:21.786Z,99990.15
2024-01-24T05:46:48.439Z,99976.58
2024-01-24T05:49:15.633Z,99958.17
2024-01-24T05:51:43.055Z,99955.95
2024-01-24T05:54:09.619Z,99947.94
2024-01-24T05:56:38.881Z,99934.35
2024-01-24T05:59:05.440Z,99906.75
2024-01-24T06:01:32.205Z,99929.11
2024-01-24T06:03:59.060Z,99931.85
2024-01-24T06:06:25.879Z,99927.20
2024-01-24T06:08:53.080Z,99922.71
2024-01-24T06:11:19.697Z,99915.88
2024-01-24T06:13:46.377Z,99916.65
2024-01-24T06:16:12.919Z,99913.28
2024-01-24T06:18:39.546Z,99905.36
2024-01-24T06:21:08.307Z,99899.08
2024-01-24T06:23:34.871Z,99899.68
2024-01-24T06:26:02.796Z,99888.55
2024-01-24T06:28:29.380Z,99884.31
2024-01-24T06:30:56.373Z,99884.31
2024-01-24T06:33:23.147Z,99883.15
2024-01-24T06:35:49.808Z,99887.27
2024-01-24T06:38:16.465Z,99891.04
2024-01-24T06:40:43.026Z,99884.50
2024-01-24T06:43:11.785Z,99871.40
2024-01-24T06:45:38.566Z,99855.14
2024-01-24T06:48:08.270Z,99854.65
2024-01-24T06:50:36.949Z,99851.29
2024-01-24T06:53:04.666Z,99848.22
2024-01-24T06:55:31.645Z,99844.05
2024-01-24T06:57:58.350Z,99839.84
2024-01-24T07:00:25.154Z,99843.91
2024-01-24T07:02:51.833Z,99843.57
2024-01-24T07:05:18.519Z,99842.41
2024-01-24T07:07:45.328Z,99828.29
2024-01-24T07:10:13.057Z,99826.83
2024-01-24T07:12:45.738Z,99825.80
2024-01-24T07:15:13.316Z,99839.03
2024-01-24T07:17:40.321Z,99823.20
2024-01-24T07:20:07.771Z,99823.05
2024-01-24T07:22:34.252Z,99827.34
2024-01-24T07:25:01.965Z,99824.93
2024-01-24T07:27:30.021Z,99820.70
2024-01-24T07:29:57.554Z,99807.39
2024-01-24T07:32:24.173Z,99807.05
2024-01-24T07:34:50.826Z,99806.17
2024-01-24T07:37:17.600Z,99802.21
2024-01-24T07:40:03.004Z,99805.30
2024-01-24T07:42:30.243Z,99787.73
2024-01-24T07:44:56.877Z,99787.48
2024-01-24T07:47:24.620Z,99788.79
2024-01-24T07:49:52.779Z,99783.95
2024-01-24T07:52:28.681Z,99780.02
2024-01-24T07:55:04.131Z,99776.67
2024-01-24T07:57:30.815Z,99776.56
2024-01-24T07:59:57.801Z,99766.04
2024-01-24T08:02:24.581Z,99780.88
2024-01-24T08:04:51.354Z,99778.33
2024-01-24T08:07:19.513Z,99785.04
2024-01-24T08:09:46.493Z,99787.15
2024-01-24T08:12:13.228Z,99792.19
2024-01-24T08:14:40.785Z,99780.80
2024-01-24T08:17:11.394Z,99781.09
2024-01-24T08:19:39.171Z,99778.34
2024-01-24T08:22:06.285Z,99774.75
2024-01-24T08:24:32.957Z,99774.55
2024-01-24T08:26:59.671Z,99761.48
2024-01-24T08:29:32.892Z,99754.82
2024-01-24T08:32:04.840Z,99756.21
2024-01-24T08:34:31.518Z,99752.83
2024-01-24T08:36:58.136Z,99749.48
2024-01-24T08:39:24.761Z,99752.75
2024-01-24T08:41:51.362Z,99749.73
2024-01-24T08:44:18.807Z,99752.61
2024-01-24T08:46:45.301Z,99747.11
2024-01-24T08:49:13.488Z,99751.31
2024-01-24T08:51:40.102Z,99743.23
2024-01-24T08:54:07.504Z,99758.06
2024-01-24T08:56:34.734Z,99759.60
2024-01-24T08:59:01.373Z,99753.97
2024-01-24T09:01:31.258Z,99751.27
2024-01-24T09:04:00.317Z,99755.45
2024-01-24T09:06:27.036Z,99753.70
2024-01-24T09:08:54.294Z,99757.34
2024-01-24T09:11:21.732Z,99755.44
2024-01-24T09:13:49.617Z,99757.04
2024-01-24T09:16:18.488Z,99752.68
2024-01-24T09:18:45.367Z,99747.34
2024-01-24T09:21:12.189Z,99749.52
2024-01-24T09:23:38.826Z,99742.41
2024-01-24T09:26:06.789Z,99743.77
2024-01-24T09:28:33.410Z,99737.83
2024-01-24T09:31:00.150Z,99742.95
2024-01-24T09:33:27.189Z,99733.84
2024-01-24T09:35:53.947Z,99725.41
2024-01-24T09:38:20.597Z,99718.09
2024-01-24T09:40:47.332Z,99740.98
2024-01-24T09:43:15.260Z,99723.27
2024-01-24T09:45:45.424Z,99729.80
2024-01-24T10:01:44.812Z,99717.84
2024-01-24T10:04:16.646Z,99705.11
2024-01-24T10:06:48.257Z,99694.27
2024-01-24T10:09:16.972Z,99691.56
2024-01-24T10:11:46.251Z,99684.71
2024-01-24T10:14:21.038Z,99685.90
2024-01-24T10:16:52.200Z,99679.77
2024-01-24T10:19:26.101Z,99676.95
2024-01-24T10:21:54.666Z,99680.66
2024-01-24T10:24:23.176Z,99677.72
2024-01-24T10:26:53.188Z,99685.21
2024-01-24T10:29:21.411Z,99692.85
2024-01-24T10:31:57.570Z,99690.16
2024-01-24T10:34:43.781Z,99685.10
2024-01-24T10:37:12.410Z,99691.66
2024-01-24T10:39:41.156Z,99683.54
2024-01-24T10:42:16.036Z,99688.04
2024-01-24T10:44:45.919Z,99690.80
2024-01-24T10:47:15.645Z,99688.20
2024-01-24T10:49:45.347Z,99683.64
2024-01-24T10:52:14.569Z,99679.77
2024-01-24T10:54:43.180Z,99672.74
2024-01-24T10:57:13.960Z,99656.27
2024-01-24T10:59:45.370Z,99660.27
2024-01-24T11:02:13.676Z,99651.47
2024-01-24T11:04:42.725Z,99645.64
2024-01-24T11:07:16.918Z,99643.85
2024-01-24T11:09:55.216Z,99639.55
2024-01-24T11:12:23.822Z,99678.69
2024-01-24T11:14:53.813Z,99701.08
2024-01-24T11:17:22.675Z,99706.14
2024-01-24T11:19:50.870Z,99689.52
2024-01-24T11:22:30.116Z,99682.47
2024-01-24T11:25:00.631Z,99673.20
2024-01-24T11:27:39.534Z,99671.48
2024-01-24T11:30:27.936Z,99680.45
2024-01-24T11:32:59.541Z,99689.27
2024-01-24T11:35:28.856Z,99690.91
2024-01-24T11:38:08.350Z,99700.48
2024-01-24T11:40:49.183Z,99705.52
2024-01-24T11:43:46.846Z,99719.90
2024-01-24T11:46:15.369Z,99718.70
2024-01-24T11:48:43.595Z,99709.58
2024-01-24T11:51:14.408Z,99706.01
2024-01-24T11:53:42.683Z,99708.20
2024-01-24T11:56:17.502Z,99696.11
2024-01-24T11:58:45.517Z,99716.06
2024-01-24T12:01:14.114Z,99719.08
2024-01-24T12:03:50.629Z,99729.19
2024-01-24T12:06:20.344Z,99729.19
2024-01-24T12:08:50.520Z,99715.71
2024-01-24T12:11:19.940Z,99709.90
2024-01-24T12:13:48.778Z,99713.40
2024-01-24T12:16:16.894Z,99707.48
2024-01-24T12:18:45.231Z,99711.68
2024-01-24T12:21:13.794Z,99709.62
2024-01-24T12:23:42.013Z,99718.95
2024-01-24T12:26:10.709Z,99722.38
2024-01-24T12:28:39.061Z,99701.06
2024-01-24T12:31:07.637Z,99693.88
2024-01-24T12:33:37.282Z,99715.73
2024-01-24T12:36:06.714Z,99722.05
2024-01-24T12:38:36.612Z,99726.50
2024-01-24T12:41:05.403Z,99731.82
2024-01-24T12:43:33.716Z,99716.20
2024-01-24T12:46:12.511Z,99726.18
2024-01-24T12:48:40.725Z,99721.48
2024-01-24T12:51:09.491Z,99720.15
2024-01-24T12:53:37.632Z,99729.90
2024-01-24T12:56:06.394Z,99724.54
2024-01-24T12:58:34.609Z,99729.82
2024-01-24T13:01:03.009Z,99749.52
2024-01-24T13:03:31.453Z,99760.01
2024-01-24T13:06:00.380Z,99764.06
2024-01-24T13:08:28.672Z,99764.16
2024-01-24T13:10:57.436Z,99785.27
2024-01-24T13:13:25.728Z,99777.54
2024-01-24T13:15:55.082Z,99778.58
2024-01-24T13:18:24.270Z,99779.29
2024-01-24T13:20:52.446Z,99764.19
2024-01-24T13:23:20.392Z,99775.27
2024-01-24T13:25:48.566Z,99777.04
2024-01-24T13:28:16.589Z,99765.42
2024-01-24T13:30:45.373Z,99769.74
2024-01-24T13:33:13.679Z,99760.88
2024-01-24T13:35:42.048Z,99780.52
2024-01-24T13:38:10.549Z,99767.64
2024-01-24T13:40:39.494Z,99773.86
2024-01-24T13:43:07.993Z,99782.15
2024-01-24T13:45:39.683Z,99783.73
2024-01-24T13:48:10.117Z,99784.27
2024-01-24T13:50:39.119Z,99791.20
2024-01-24T13:53:07.666Z,99781.83
2024-01-24T13:55:35.756Z,99784.58
2024-01-24T13:58:04.589Z,99777.84
2024-01-24T14:00:33.154Z,99782.97
2024-01-24T14:03:01.753Z,99789.48
2024-01-24T14:05:30.135Z,99783.39
2024-01-24T14:07:58.466Z,99786.98
2024-01-24T14:10:26.609Z,99789.83
2024-01-24T14:12:54.737Z,99792.30
2024-01-24T14:15:32.742Z,99788.31
2024-01-24T14:18:03.871Z,99786.87
2024-01-24T14:20:32.102Z,99783.41
2024-01-24T14:23:00.011Z,99784.81
2024-01-24T14:25:28.361Z,99793.55
2024-01-24T14:27:57.135Z,99788.80
2024-01-24T14:30:26.135Z,99786.01
2024-01-24T14:32:54.191Z,99781.89
2024-01-24T14:35:24.299Z,99793.80
2024-01-24T14:37:52.521Z,99807.60
2024-01-24T14:40:20.907Z,99814.14
2024-01-24T14:42:49.092Z,99818.27
2024-01-24T14:45:17.128Z,99820.02
2024-01-24T14:47:45.322Z,99824.16
2024-01-24T14:50:13.831Z,99831.93
2024-01-24T14:52:42.080Z,99833.09
2024-01-24T14:55:10.616Z,99820.27
2024-01-24T14:57:39.364Z,99843.45
2024-01-24T15:00:11.499Z,99840.51
2024-01-24T15:02:40.000Z,99857.06
2024-01-24T15:05:09.802Z,99860.23
2024-01-24T15:07:38.791Z,99849.52
2024-01-24T15:10:09.364Z,99847.25
2024-01-24T15:12:38.251Z,99847.98
2024-01-24T15:15:07.001Z,99841.02
2024-01-24T15:17:36.018Z,99845.02
2024-01-24T15:20:05.228Z,99854.11
2024-01-24T15:22:34.273Z,99865.47
2024-01-24T15:25:04.751Z,99869.81
2024-01-24T15:27:33.376Z,99870.93
2024-01-24T15:30:01.742Z,99867.73
2024-01-24T15:32:31.137Z,99864.43
2024-01-24T15:34:59.680Z,99860.45
2024-01-24T15:37:28.265Z,99864.25
2024-01-24T15:39:57.386Z,99872.44
2024-01-24T15:42:27.710Z,99871.56
2024-01-24T15:44:55.832Z,99882.84
2024-01-24T15:47:25.135Z,99875.46
2024-01-24T15:49:53.323Z,99871.47
2024-01-24T15:52:21.765Z,99875.06
2024-01-24T15:54:50.648Z,99879.14
2024-01-24T15:57:18.779Z,99887.55
2024-01-24T15:59:46.920Z,99895.00
2024-01-24T16:02:16.705Z,99895.89
2024-01-24T16:04:45.403Z,99884.67
2024-01-24T16:07:15.655Z,99878.58
2024-01-24T16:09:44.067Z,99872.46
2024-01-24T16:12:13.271Z,99879.23
2024-01-24T16:14:41.794Z,99882.52
2024-01-24T16:17:11.640Z,99881.83
2024-01-24T16:19:41.059Z,99879.86
2024-01-24T16:22:10.721Z,99876.88
2024-01-24T16:24:39.004Z,99888.29
2024-01-24T16:27:07.155Z,99874.64
2024-01-24T16:29:35.254Z,99874.42
2024-01-24T16:32:03.240Z,99883.60
2024-01-24T16:34:31.361Z,99881.84
2024-01-24T16:36:59.798Z,99875.40
2024-01-24T16:39:27.918Z,99870.58
2024-01-24T16:41:55.855Z,99876.37
2024-01-24T16:44:23.840Z,99874.67
2024-01-24T16:46:51.821Z,99881.83
2024-01-24T16:49:19.898Z,99879.46
2024-01-24T16:51:48.105Z,99889.17
2024-01-24T16:54:16.242Z,99887.75
2024-01-24T16:56:44.294Z,99885.27
2024-01-24T16:59:12.980Z,99882.89
2024-01-24T17:01:40.986Z,99895.06
2024-01-24T17:04:09.295Z,99902.02
2024-01-24T17:06:39.905Z,99900.48
2024-01-24T17:09:08.710Z,99898.20
2024-01-24T17:11:36.694Z,99893.01
2024-01-24T17:14:04.644Z,99906.45
2024-01-24T17:16:32.623Z,99907.55
2024-01-24T17:19:00.829Z,99905.08
2024-01-24T17:21:28.806Z,99910.15
2024-01-24T17:23:56.694Z,99913.42
2024-01-24T17:26:24.570Z,99899.83
2024-01-24T17:28:54.424Z,99910.19
2024-01-24T17:31:23.226Z,99906.14
2024-01-24T17:33:51.680Z,99912.63
2024-01-24T17:36:19.662Z,99918.45
2024-01-24T17:38:47.722Z,99912.99
2024-01-24T17:41:16.075Z,99922.95
2024-01-24T17:43:44.111Z,99927.52
2024-01-24T17:46:12.315Z,99919.64
2024-01-24T17:48:40.622Z,99918.88
2024-01-24T17:51:08.608Z,99915.98
2024-01-24T17:53:36.958Z,99918.98
2024-01-24T17:56:05.391Z,99917.30
2024-01-24T17:58:37.205Z,99911.84
2024-01-24T18:01:06.031Z,99909.23
2024-01-24T18:03:36.084Z,99915.58
2024-01-24T18:06:04.386Z,99911.67
2024-01-24T18:08:32.462Z,99922.04
2024-01-24T18:11:00.538Z,99922.98
2024-01-24T18:13:29.128Z,99930.95
2024-01-24T18:15:57.144Z,99927.61
2024-01-24T18:18:27.402Z,99927.48
2024-01-24T18:20:55.733Z,99937.97
2024-01-24T18:23:23.797Z,99946.26
2024-01-24T18:25:51.775Z,99942.50
2024-01-24T18:28:19.835Z,99947.98
2024-01-24T18:30:47.759Z,99944.09
2024-01-24T18:33:16.490Z,99961.48
2024-01-24T18:35:44.804Z,99966.44
2024-01-24T18:38:12.937Z,99967.23
2024-01-24T18:40:41.132Z,99974.12
2024-01-24T18:43:10.416Z,99977.30
2024-01-24T18:45:39.207Z,99985.66
2024-01-24T18:48:10.942Z,99996.13
2024-01-24T18:50:43.100Z,99999.26
2024-01-24T18:53:11.761Z,100004.76
2024-01-24T18:55:39.961Z,100004.70
2024-01-24T18:58:08.503Z,99989.65
2024-01-24T19:00:36.933Z,99989.06
2024-01-24T19:03:05.361Z,99996.95
2024-01-24T19:05:37.601Z,99973.83
2024-01-24T19:08:09.466Z,99989.02
2024-01-24T19:10:39.167Z,99976.00
2024-01-24T19:13:08.470Z,99984.77
2024-01-24T19:15:36.711Z,99993.53
2024-01-24T19:18:11.078Z,99978.97
2024-01-24T19:20:42.698Z,99989.40
2024-01-24T19:23:10.929Z,99989.61
2024-01-24T19:25:39.064Z,99990.06
2024-01-24T19:28:07.337Z,99984.42
2024-01-24T19:30:35.506Z,99991.81
2024-01-24T19:33:03.754Z,99999.23
2024-01-24T19:35:33.069Z,99975.58
2024-01-24T19:38:02.682Z,99991.73
2024-01-24T19:40:30.994Z,99997.10
2024-01-24T19:42:59.020Z,99999.02
2024-01-24T19:45:29.338Z,100001.54
2024-01-24T19:47:57.330Z,100004.34
2024-01-24T19:50:25.329Z,100006.19
2024-01-24T19:52:55.415Z,100014.35
2024-01-24T19:55:25.041Z,100019.96
2024-01-24T19:57:53.114Z,100017.30
2024-01-24T20:00:21.230Z,100014.48
2024-01-24T20:02:49.837Z,100019.63
2024-01-24T20:05:18.725Z,100030.70
2024-01-24T20:07:47.334Z,100029.04
2024-01-24T20:10:15.656Z,100033.89
2024-01-24T20:12:43.774Z,100040.15
2024-01-24T20:15:12.083Z,100039.30
2024-01-24T20:17:46.208Z,100053.61
2024-01-24T20:20:15.969Z,100044.02
2024-01-24T20:22:44.558Z,100044.38
2024-01-24T20:25:12.727Z,100043.98
2024-01-24T20:27:40.867Z,100034.73
2024-01-24T20:30:09.133Z,100046.20
2024-01-24T20:32:43.008Z,100039.78
2024-01-24T20:35:17.219Z,100048.36
2024-01-24T20:37:45.216Z,100048.38
2024-01-24T20:40:13.920Z,100051.98
2024-01-24T20:42:42.489Z,100054.73
2024-01-24T20:45:11.068Z,100056.71
2024-01-24T20:47:39.226Z,100042.88
2024-01-24T20:50:08.035Z,100055.48
2024-01-24T20:52:36.482Z,100054.84
2024-01-24T20:55:05.165Z,100060.69
2024-01-24T20:57:34.528Z,100054.16
2024-01-24T21:00:03.779Z,100052.81
2024-01-24T21:02:31.940Z,100049.84
2024-01-24T21:04:59.908Z,100053.16
2024-01-24T21:07:28.004Z,100053.63
2024-01-24T21:09:56.352Z,100053.20
2024-01-24T21:12:24.325Z,100057.63
2024-01-24T21:14:52.705Z,100061.80
2024-01-24T21:17:21.315Z,100063.79
2024-01-24T21:19:49.671Z,100064.63
2024-01-24T21:22:18.954Z,100068.70
2024-01-24T21:24:47.028Z,100066.98
2024-01-24T21:27:14.939Z,100072.38
2024-01-24T21:29:45.383Z,100071.41
2024-01-24T21:32:14.445Z,100069.42
2024-01-24T21:34:42.667Z,100075.27
2024-01-24T21:37:10.745Z,100078.96
2024-01-24T21:39:38.795Z,100076.31
2024-01-24T21:42:07.394Z,100084.84
2024-01-24T21:44:36.334Z,100087.15
2024-01-24T21:47:04.819Z,100089.11
2024-01-24T21:49:32.969Z,100087.50
2024-01-24T21:52:01.196Z,100087.80
2024-01-24T21:54:29.213Z,100086.71
2024-01-24T21:56:57.586Z,100089.55
2024-01-24T21:59:25.579Z,100087.80
2024-01-24T22:01:53.573Z,100073.59
2024-01-24T22:04:21.792Z,100099.91
2024-01-24T22:06:50.260Z,100100.56
2024-01-24T22:09:18.340Z,100110.55
2024-01-24T22:11:46.614Z,100115.05
2024-01-24T22:14:14.530Z,100116.06
2024-01-24T22:16:42.470Z,100110.02
2024-01-24T22:19:10.490Z,100120.58
2024-01-24T22:21:44.644Z,100120.70
2024-01-24T22:24:12.700Z,100120.13
2024-01-24T22:26:41.272Z,100120.27
2024-01-24T22:29:10.570Z,100117.78
2024-01-24T22:31:38.851Z,100125.63
2024-01-24T22:34:07.130Z,100130.42
2024-01-24T22:36:35.323Z,100131.55
2024-01-24T22:39:03.606Z,100133.30
2024-01-24T22:41:32.247Z,100120.20
2024-01-24T22:44:00.360Z,100113.95
2024-01-24T22:46:28.414Z,100119.83
2024-01-24T22:48:57.995Z,100123.40
2024-01-24T22:51:26.099Z,100123.08
2024-01-24T22:53:55.823Z,100115.21
2024-01-24T22:56:24.013Z,100115.46
2024-01-24T22:58:51.964Z,100106.60
2024-01-24T23:01:20.309Z,100113.57
2024-01-24T23:03:48.642Z,100103.96
2024-01-24T23:06:16.672Z,100097.00
2024-01-24T23:08:44.928Z,100106.55
2024-01-24T23:11:13.666Z,100107.91
2024-01-24T23:13:41.850Z,100110.37
2024-01-24T23:16:09.901Z,100104.02
2024-01-24T23:18:38.083Z,100105.00
2024-01-24T23:21:06.291Z,100111.19
2024-01-24T23:23:34.277Z,100113.18
2024-01-24T23:26:02.240Z,100112.04
2024-01-24T23:28:30.717Z,100111.60
2024-01-24T23:30:58.692Z,100115.19
2024-01-24T23:33:29.377Z,100120.38
2024-01-24T23:35:57.489Z,100106.49
2024-01-24T23:38:25.501Z,100115.66
2024-01-24T23:40:53.371Z,100109.55
2024-01-24T23:43:21.372Z,100111.11
2024-01-24T23:45:49.414Z,100110.77
2024-01-24T23:48:17.669Z,100101.27
2024-01-24T23:50:45.791Z,100098.50
2024-01-24T23:53:13.816Z,100100.40
2024-01-24T23:55:41.671Z,100093.23
2024-01-24T23:58:09.665Z,100091.26
